createdAt,value
2023-03-19T00:00:25.310Z,11.43
2023-03-19T00:01:25.322Z,11.38
2023-03-19T00:02:25.344Z,11.36
2023-03-19T00:03:25.382Z,11.28
2023-03-19T00:04:25.284Z,11.28
2023-03-19T00:05:25.269Z,11.20
2023-03-19T00:06:25.249Z,11.06
2023-03-19T00:07:25.238Z,10.92
2023-03-19T00:08:25.230Z,10.81
2023-03-19T00:09:25.235Z,10.78
2023-03-19T00:10:25.206Z,10.76
2023-03-19T00:11:25.202Z,10.80
2023-03-19T00:12:25.186Z,10.84
2023-03-19T00:13:25.191Z,10.92
2023-03-19T00:14:25.182Z,10.84
2023-03-19T00:15:25.168Z,10.84
2023-03-19T00:16:25.248Z,10.91
2023-03-19T00:17:25.156Z,10.99
2023-03-19T00:18:25.122Z,11.10
2023-03-19T00:19:25.123Z,11.06
2023-03-19T00:20:25.101Z,11.09
2023-03-19T00:21:26.082Z,10.95
2023-03-19T00:22:25.092Z,10.95
2023-03-19T00:23:25.081Z,11.09
2023-03-19T00:24:25.072Z,11.06
2023-03-19T00:25:25.047Z,11.02
2023-03-19T00:26:25.037Z,11.01
2023-03-19T00:27:25.036Z,10.91
2023-03-19T00:28:25.016Z,10.94
2023-03-19T00:29:25.019Z,10.94
2023-03-19T00:30:25.044Z,10.98
2023-03-19T00:31:24.982Z,10.95
2023-03-19T00:32:24.973Z,10.94
2023-03-19T00:33:24.980Z,11.01
2023-03-19T00:34:24.962Z,11.03
2023-03-19T00:35:24.952Z,10.99
2023-03-19T00:36:24.928Z,11.06
2023-03-19T00:37:24.924Z,11.01
2023-03-19T00:38:24.909Z,10.96
2023-03-19T00:39:24.898Z,11.10
2023-03-19T00:40:24.898Z,11.09
2023-03-19T00:41:24.878Z,11.03
2023-03-19T00:42:24.867Z,11.16
2023-03-19T00:43:24.864Z,11.11
2023-03-19T00:44:24.840Z,11.17
2023-03-19T00:45:24.857Z,11.14
2023-03-19T00:46:24.900Z,11.17
2023-03-19T00:47:24.841Z,11.20
2023-03-19T00:48:24.807Z,11.19
2023-03-19T00:49:24.813Z,11.14
2023-03-19T00:50:24.790Z,11.10
2023-03-19T00:51:24.769Z,11.10
2023-03-19T00:52:24.761Z,11.09
2023-03-19T00:53:24.747Z,11.17
2023-03-19T00:54:24.733Z,11.13
2023-03-19T00:55:24.738Z,11.13
2023-03-19T00:56:24.720Z,11.13
2023-03-19T00:57:24.738Z,11.16
2023-03-19T00:58:24.689Z,11.19
2023-03-19T00:59:24.683Z,11.13
2023-03-19T01:00:24.686Z,11.13
2023-03-19T01:01:24.700Z,10.99
2023-03-19T01:02:24.651Z,11.06
2023-03-19T01:03:24.638Z,11.03
2023-03-19T01:04:24.697Z,11.03
2023-03-19T01:05:24.644Z,11.01
2023-03-19T01:06:24.603Z,11.01
2023-03-19T01:07:24.595Z,11.03
2023-03-19T01:08:24.578Z,11.03
2023-03-19T01:09:24.569Z,11.13
2023-03-19T01:10:24.571Z,11.14
2023-03-19T01:11:24.547Z,11.10
2023-03-19T01:12:24.541Z,11.13
2023-03-19T01:13:24.532Z,11.11
2023-03-19T01:14:24.523Z,11.14
2023-03-19T01:15:24.520Z,11.06
2023-03-19T01:16:24.491Z,10.92
2023-03-19T01:17:24.482Z,10.86
2023-03-19T01:18:24.474Z,10.73
2023-03-19T01:19:24.461Z,10.42
2023-03-19T01:20:24.469Z,10.30
2023-03-19T01:21:24.462Z,10.15
2023-03-19T01:22:24.429Z,10.01
2023-03-19T01:23:24.419Z,10.04
2023-03-19T01:24:24.414Z,10.00
2023-03-19T01:25:24.412Z,9.99
2023-03-19T01:26:24.386Z,10.07
2023-03-19T01:27:24.378Z,10.14
2023-03-19T01:28:24.366Z,10.18
2023-03-19T01:29:24.356Z,10.25
2023-03-19T01:30:24.355Z,10.33
2023-03-19T01:31:24.373Z,10.40
2023-03-19T01:32:24.318Z,10.42
2023-03-19T01:33:25.689Z,10.40
2023-03-19T01:34:24.311Z,10.40
2023-03-19T01:35:24.310Z,10.40
2023-03-19T01:36:24.277Z,10.34
2023-03-19T01:37:24.331Z,10.25
2023-03-19T01:38:24.251Z,10.40
2023-03-19T01:39:24.244Z,10.34
2023-03-19T01:40:24.389Z,10.33
2023-03-19T01:41:24.224Z,10.40
2023-03-19T01:42:24.209Z,10.34
2023-03-19T01:43:24.204Z,10.36
2023-03-19T01:44:24.191Z,10.39
2023-03-19T01:45:24.449Z,10.28
2023-03-19T01:46:24.215Z,10.34
2023-03-19T01:47:24.154Z,10.34
2023-03-19T01:48:24.143Z,10.28
2023-03-19T01:49:24.132Z,10.18
2023-03-19T01:50:24.324Z,10.03
2023-03-19T01:51:24.112Z,10.09
2023-03-19T01:52:24.100Z,10.12
2023-03-19T01:53:24.113Z,10.19
2023-03-19T01:54:24.077Z,10.21
2023-03-19T01:55:24.308Z,10.26
2023-03-19T01:56:24.110Z,10.19
2023-03-19T01:57:24.045Z,10.39
2023-03-19T01:58:25.905Z,10.37
2023-03-19T01:59:24.024Z,10.37
2023-03-19T02:00:24.023Z,10.40
2023-03-19T02:01:24.012Z,10.39
2023-03-19T02:02:23.995Z,10.36
2023-03-19T02:03:23.979Z,10.42
2023-03-19T02:04:24.036Z,10.39
2023-03-19T02:05:23.974Z,10.37
2023-03-19T02:06:23.952Z,10.39
2023-03-19T02:07:23.941Z,10.40
2023-03-19T02:08:23.934Z,10.47
2023-03-19T02:09:23.931Z,10.43
2023-03-19T02:10:23.912Z,10.37
2023-03-19T02:11:23.888Z,10.37
2023-03-19T02:12:23.878Z,10.51
2023-03-19T02:13:23.939Z,10.53
2023-03-19T02:14:23.862Z,10.39
2023-03-19T02:15:23.863Z,10.58
2023-03-19T02:16:23.893Z,10.55
2023-03-19T02:17:23.827Z,10.52
2023-03-19T02:18:23.809Z,10.56
2023-03-19T02:19:23.804Z,10.47
2023-03-19T02:20:23.851Z,10.53
2023-03-19T02:21:23.799Z,10.51
2023-03-19T02:22:23.775Z,10.47
2023-03-19T02:23:23.757Z,10.53
2023-03-19T02:24:23.742Z,10.52
2023-03-19T02:25:23.771Z,10.52
2023-03-19T02:26:23.720Z,10.51
2023-03-19T02:27:23.746Z,10.51
2023-03-19T02:28:23.722Z,10.56
2023-03-19T02:29:23.690Z,10.56
2023-03-19T02:30:23.694Z,10.56
2023-03-19T02:31:23.776Z,10.56
2023-03-19T02:32:23.655Z,10.42
2023-03-19T02:33:23.647Z,10.42
2023-03-19T02:34:23.639Z,10.34
2023-03-19T02:35:23.643Z,10.30
2023-03-19T02:36:23.613Z,10.33
2023-03-19T02:37:23.603Z,10.12
2023-03-19T02:38:23.590Z,10.06
2023-03-19T02:39:23.599Z,9.99
2023-03-19T02:40:23.580Z,10.01
2023-03-19T02:41:23.577Z,9.93
2023-03-19T02:42:23.545Z,9.89
2023-03-19T02:43:23.545Z,9.88
2023-03-19T02:44:23.521Z,9.85
2023-03-19T02:45:23.589Z,9.82
2023-03-19T02:46:23.575Z,9.88
2023-03-19T02:47:23.495Z,9.79
2023-03-19T02:48:23.494Z,9.83
2023-03-19T02:49:23.502Z,10.03
2023-03-19T02:50:23.472Z,10.00
2023-03-19T02:51:23.449Z,9.97
2023-03-19T02:52:23.445Z,10.06
2023-03-19T02:53:23.479Z,10.04
2023-03-19T02:54:23.436Z,10.07
2023-03-19T02:55:23.412Z,10.17
2023-03-19T02:56:23.394Z,10.12
2023-03-19T02:57:23.424Z,10.14
2023-03-19T02:58:23.373Z,10.18
2023-03-19T02:59:23.368Z,10.21
2023-03-19T03:00:23.372Z,10.21
2023-03-19T03:01:23.359Z,10.19
2023-03-19T03:02:23.480Z,10.25
2023-03-19T03:03:23.319Z,10.36
2023-03-19T03:04:23.316Z,10.32
2023-03-19T03:05:23.309Z,10.37
2023-03-19T03:06:23.283Z,10.40
2023-03-19T03:07:23.277Z,10.37
2023-03-19T03:08:23.264Z,10.32
2023-03-19T03:09:23.253Z,10.25
2023-03-19T03:10:23.261Z,10.25
2023-03-19T03:11:23.233Z,10.30
2023-03-19T03:12:23.220Z,10.33
2023-03-19T03:13:23.230Z,10.26
2023-03-19T03:14:23.211Z,10.17
2023-03-19T03:15:23.211Z,10.18
2023-03-19T03:16:23.245Z,10.18
2023-03-19T03:17:23.170Z,10.26
2023-03-19T03:18:23.169Z,10.17
2023-03-19T03:19:23.147Z,10.09
2023-03-19T03:20:23.153Z,10.04
2023-03-19T03:21:23.141Z,10.10
2023-03-19T03:22:23.119Z,10.04
2023-03-19T03:23:23.104Z,9.85
2023-03-19T03:24:23.097Z,9.85
2023-03-19T03:25:23.158Z,9.78
2023-03-19T03:26:23.083Z,9.61
2023-03-19T03:27:23.066Z,9.58
2023-03-19T03:28:23.050Z,9.48
2023-03-19T03:29:23.062Z,9.32
2023-03-19T03:30:23.059Z,9.30
2023-03-19T03:31:23.086Z,9.27
2023-03-19T03:32:23.006Z,9.21
2023-03-19T03:33:22.998Z,9.21
2023-03-19T03:34:22.987Z,9.20
2023-03-19T03:35:23.133Z,9.18
2023-03-19T03:36:22.963Z,9.16
2023-03-19T03:37:22.953Z,9.20
2023-03-19T03:38:22.967Z,9.28
2023-03-19T03:39:22.981Z,9.28
2023-03-19T03:40:22.973Z,9.34
2023-03-19T03:41:22.924Z,9.43
2023-03-19T03:42:22.928Z,9.53
2023-03-19T03:43:22.895Z,9.61
2023-03-19T03:44:22.880Z,9.66
2023-03-19T03:45:22.909Z,9.78
2023-03-19T03:46:22.854Z,9.83
2023-03-19T03:47:22.850Z,9.85
2023-03-19T03:48:22.857Z,9.85
2023-03-19T03:49:22.824Z,9.91
2023-03-19T03:50:22.820Z,10.06
2023-03-19T03:51:22.807Z,10.07
2023-03-19T03:52:22.846Z,10.10
2023-03-19T03:53:22.784Z,10.12
2023-03-19T03:54:22.770Z,10.21
2023-03-19T03:55:22.799Z,10.19
2023-03-19T03:56:22.746Z,10.33
2023-03-19T03:57:22.745Z,10.26
2023-03-19T03:58:22.724Z,10.37
2023-03-19T03:59:22.715Z,10.37
2023-03-19T04:00:22.721Z,10.37
2023-03-19T04:01:22.717Z,10.37
2023-03-19T04:02:22.771Z,10.40
2023-03-19T04:03:22.805Z,10.39
2023-03-19T04:04:22.660Z,10.43
2023-03-19T04:05:22.662Z,10.40
2023-03-19T04:06:22.640Z,10.25
2023-03-19T04:07:22.644Z,10.28
2023-03-19T04:08:22.619Z,10.28
2023-03-19T04:09:22.608Z,10.26
2023-03-19T04:10:22.607Z,10.32
2023-03-19T04:11:22.583Z,10.25
2023-03-19T04:12:22.571Z,10.30
2023-03-19T04:13:22.562Z,10.25
2023-03-19T04:14:22.549Z,10.34
2023-03-19T04:15:22.572Z,10.39
2023-03-19T04:16:22.562Z,10.36
2023-03-19T04:17:22.536Z,10.37
2023-03-19T04:18:22.508Z,10.40
2023-03-19T04:19:22.496Z,10.39
2023-03-19T04:20:22.484Z,10.44
2023-03-19T04:21:22.489Z,10.44
2023-03-19T04:22:22.471Z,10.44
2023-03-19T04:23:22.460Z,10.53
2023-03-19T04:24:22.447Z,10.39
2023-03-19T04:25:22.434Z,10.55
2023-03-19T04:26:22.435Z,10.53
2023-03-19T04:27:22.406Z,10.56
2023-03-19T04:28:22.404Z,10.53
2023-03-19T04:29:22.399Z,10.47
2023-03-19T04:30:22.374Z,10.55
2023-03-19T04:31:22.454Z,10.53
2023-03-19T04:32:22.356Z,10.46
2023-03-19T04:33:22.367Z,10.51
2023-03-19T04:34:22.336Z,10.55
2023-03-19T04:35:22.324Z,10.56
2023-03-19T04:36:22.332Z,10.46
2023-03-19T04:37:22.312Z,10.51
2023-03-19T04:38:22.292Z,10.53
2023-03-19T04:39:22.279Z,10.43
2023-03-19T04:40:22.279Z,10.47
2023-03-19T04:41:22.272Z,10.52
2023-03-19T04:42:22.251Z,10.46
2023-03-19T04:43:22.240Z,10.59
2023-03-19T04:44:22.224Z,10.60
2023-03-19T04:45:22.216Z,10.62
2023-03-19T04:46:22.264Z,10.74
2023-03-19T04:47:22.195Z,10.68
2023-03-19T04:48:22.202Z,10.81
2023-03-19T04:49:22.192Z,10.76
2023-03-19T04:50:22.159Z,10.73
2023-03-19T04:51:22.158Z,10.78
2023-03-19T04:52:22.179Z,10.80
2023-03-19T04:53:22.128Z,10.80
2023-03-19T04:54:22.117Z,10.81
2023-03-19T04:55:22.103Z,10.78
2023-03-19T04:56:22.110Z,10.77
2023-03-19T04:57:22.084Z,10.77
2023-03-19T04:58:22.078Z,10.76
2023-03-19T04:59:23.187Z,10.78
2023-03-19T05:00:22.062Z,10.76
2023-03-19T05:01:22.110Z,10.83
2023-03-19T05:02:22.072Z,10.80
2023-03-19T05:03:22.019Z,10.77
2023-03-19T05:04:22.012Z,10.74
2023-03-19T05:05:22.021Z,10.78
2023-03-19T05:06:22.006Z,10.81
2023-03-19T05:07:21.979Z,10.81
2023-03-19T05:08:21.983Z,10.73
2023-03-19T05:09:21.954Z,10.68
2023-03-19T05:10:21.982Z,10.76
2023-03-19T05:11:21.946Z,10.73
2023-03-19T05:12:21.923Z,10.76
2023-03-19T05:13:21.909Z,10.71
2023-03-19T05:14:21.900Z,10.68
2023-03-19T05:15:21.914Z,10.73
2023-03-19T05:16:21.993Z,10.71
2023-03-19T05:17:21.868Z,10.73
2023-03-19T05:18:21.860Z,10.65
2023-03-19T05:19:21.849Z,10.68
2023-03-19T05:20:21.851Z,10.52
2023-03-19T05:21:21.915Z,10.52
2023-03-19T05:22:21.829Z,10.56
2023-03-19T05:23:21.804Z,10.56
2023-03-19T05:24:21.798Z,10.46
2023-03-19T05:25:21.803Z,10.55
2023-03-19T05:26:21.810Z,10.42
2023-03-19T05:27:21.760Z,10.33
2023-03-19T05:28:21.760Z,10.30
2023-03-19T05:29:21.738Z,10.25
2023-03-19T05:30:21.730Z,10.28
2023-03-19T05:31:21.815Z,10.28
2023-03-19T05:32:21.709Z,10.26
2023-03-19T05:33:21.696Z,10.26
2023-03-19T05:34:21.695Z,10.24
2023-03-19T05:35:21.745Z,10.26
2023-03-19T05:36:21.677Z,10.30
2023-03-19T05:37:21.673Z,10.36
2023-03-19T05:38:21.645Z,10.34
2023-03-19T05:39:21.653Z,10.34
2023-03-19T05:40:21.622Z,10.47
2023-03-19T05:41:21.623Z,10.37
2023-03-19T05:42:21.612Z,10.55
2023-03-19T05:43:21.596Z,10.52
2023-03-19T05:44:21.580Z,10.58
2023-03-19T05:45:21.565Z,10.65
2023-03-19T05:46:21.572Z,10.71
2023-03-19T05:47:21.553Z,10.74
2023-03-19T05:48:21.562Z,10.80
2023-03-19T05:49:21.523Z,10.63
2023-03-19T05:50:21.529Z,10.44
2023-03-19T05:51:21.511Z,10.33
2023-03-19T05:52:21.491Z,10.17
2023-03-19T05:53:21.535Z,10.15
2023-03-19T05:54:21.480Z,9.88
2023-03-19T05:55:21.466Z,9.83
2023-03-19T05:56:21.465Z,9.78
2023-03-19T05:57:21.457Z,9.66
2023-03-19T05:58:21.431Z,9.66
2023-03-19T05:59:21.419Z,9.56
2023-03-19T06:00:21.408Z,9.68
2023-03-19T06:01:21.432Z,9.70
2023-03-19T06:02:21.414Z,9.81
2023-03-19T06:03:21.380Z,9.81
2023-03-19T06:04:21.454Z,9.78
2023-03-19T06:05:21.347Z,9.89
2023-03-19T06:06:21.356Z,9.89
2023-03-19T06:07:21.325Z,9.85
2023-03-19T06:08:21.316Z,9.82
2023-03-19T06:09:21.502Z,9.85
2023-03-19T06:10:21.298Z,9.79
2023-03-19T06:11:21.296Z,9.78
2023-03-19T06:12:21.278Z,9.73
2023-03-19T06:13:21.258Z,9.76
2023-03-19T06:14:21.258Z,9.88
2023-03-19T06:15:21.242Z,9.93
2023-03-19T06:16:21.338Z,9.86
2023-03-19T06:17:21.263Z,10.07
2023-03-19T06:18:21.243Z,10.10
2023-03-19T06:19:21.202Z,10.32
2023-03-19T06:20:21.185Z,10.56
2023-03-19T06:21:21.188Z,10.76
2023-03-19T06:22:21.164Z,11.01
2023-03-19T06:23:21.216Z,11.27
2023-03-19T06:24:21.140Z,11.47
2023-03-19T06:25:21.150Z,11.38
2023-03-19T06:26:21.137Z,11.61
2023-03-19T06:27:21.108Z,11.82
2023-03-19T06:28:21.104Z,12.06
2023-03-19T06:29:21.087Z,12.16
2023-03-19T06:30:21.114Z,12.08
2023-03-19T06:31:21.112Z,12.11
2023-03-19T06:32:21.062Z,12.01
2023-03-19T06:33:21.051Z,11.82
2023-03-19T06:34:21.039Z,11.82
2023-03-19T06:35:21.114Z,11.80
2023-03-19T06:36:21.040Z,11.70
2023-03-19T06:37:21.013Z,11.61
2023-03-19T06:38:20.998Z,11.62
2023-03-19T06:39:20.990Z,11.61
2023-03-19T06:40:20.973Z,11.38
2023-03-19T06:41:20.998Z,11.29
2023-03-19T06:42:21.010Z,11.32
2023-03-19T06:43:20.949Z,11.24
2023-03-19T06:44:20.934Z,11.29
2023-03-19T06:45:20.919Z,11.25
2023-03-19T06:46:20.977Z,11.32
2023-03-19T06:47:20.901Z,11.38
2023-03-19T06:48:20.890Z,11.47
2023-03-19T06:49:20.906Z,11.44
2023-03-19T06:50:20.870Z,11.44
2023-03-19T06:51:20.872Z,11.46
2023-03-19T06:52:20.855Z,11.56
2023-03-19T06:53:20.840Z,11.50
2023-03-19T06:54:20.824Z,11.61
2023-03-19T06:55:20.817Z,11.57
2023-03-19T06:56:20.859Z,11.61
2023-03-19T06:57:20.807Z,11.61
2023-03-19T06:58:20.776Z,11.61
2023-03-19T06:59:20.770Z,11.71
2023-03-19T07:00:20.785Z,11.67
2023-03-19T07:01:20.784Z,11.57
2023-03-19T07:02:20.757Z,11.62
2023-03-19T07:03:20.723Z,11.62
2023-03-19T07:04:20.856Z,11.54
2023-03-19T07:05:20.764Z,11.54
2023-03-19T07:06:20.722Z,11.53
2023-03-19T07:07:20.680Z,11.54
2023-03-19T07:08:20.679Z,11.59
2023-03-19T07:09:20.680Z,11.44
2023-03-19T07:10:20.676Z,11.38
2023-03-19T07:11:20.654Z,11.46
2023-03-19T07:12:20.632Z,11.35
2023-03-19T07:13:20.632Z,11.32
2023-03-19T07:14:20.608Z,11.34
2023-03-19T07:15:20.591Z,11.29
2023-03-19T07:16:20.638Z,11.31
2023-03-19T07:17:20.571Z,11.31
2023-03-19T07:18:20.565Z,11.29
2023-03-19T07:19:20.555Z,11.27
2023-03-19T07:20:20.540Z,11.21
2023-03-19T07:21:20.538Z,11.29
2023-03-19T07:22:20.520Z,11.24
2023-03-19T07:23:20.510Z,11.29
2023-03-19T07:24:20.499Z,11.25
2023-03-19T07:25:20.484Z,11.34
2023-03-19T07:26:27.554Z,11.24
2023-03-19T07:27:20.456Z,11.32
2023-03-19T07:28:20.451Z,11.27
2023-03-19T07:29:20.454Z,11.41
2023-03-19T07:30:20.436Z,11.36
2023-03-19T07:31:20.501Z,11.38
2023-03-19T07:32:20.408Z,11.39
2023-03-19T07:33:20.401Z,11.44
2023-03-19T07:34:20.385Z,11.54
2023-03-19T07:35:20.373Z,11.59
2023-03-19T07:36:20.376Z,11.74
2023-03-19T07:37:22.469Z,11.74
2023-03-19T07:38:20.341Z,11.72
2023-03-19T07:39:20.336Z,11.80
2023-03-19T07:40:20.318Z,11.77
2023-03-19T07:41:20.310Z,11.77
2023-03-19T07:42:20.317Z,11.77
2023-03-19T07:43:20.359Z,11.82
2023-03-19T07:44:20.274Z,11.83
2023-03-19T07:45:20.280Z,12.19
2023-03-19T07:46:20.301Z,12.42
2023-03-19T07:47:28.999Z,12.63
2023-03-19T07:48:21.234Z,12.62
2023-03-19T07:49:20.225Z,12.77
2023-03-19T07:50:20.213Z,12.88
2023-03-19T07:51:20.201Z,13.52
2023-03-19T07:52:20.197Z,13.63
2023-03-19T07:53:20.174Z,13.74
2023-03-19T07:54:20.167Z,13.77
2023-03-19T07:55:20.151Z,13.81
2023-03-19T07:56:20.156Z,13.80
2023-03-19T07:57:20.145Z,13.77
2023-03-19T07:58:20.130Z,13.56
2023-03-19T07:59:20.110Z,13.22
2023-03-19T08:00:20.102Z,12.99
2023-03-19T08:01:20.117Z,12.67
2023-03-19T08:02:22.822Z,12.70
2023-03-19T08:03:20.067Z,12.54
2023-03-19T08:04:20.080Z,12.69
2023-03-19T08:05:20.042Z,12.87
2023-03-19T08:06:20.035Z,13.02
2023-03-19T08:07:20.033Z,13.14
2023-03-19T08:08:20.017Z,13.18
2023-03-19T08:09:19.998Z,13.32
2023-03-19T08:10:19.992Z,13.46
2023-03-19T08:11:19.980Z,13.58
2023-03-19T08:12:19.983Z,13.77
2023-03-19T08:13:19.965Z,14.34
2023-03-19T08:14:20.017Z,14.61
2023-03-19T08:15:19.932Z,15.26
2023-03-19T08:16:20.021Z,15.56
2023-03-19T08:17:19.939Z,16.01
2023-03-19T08:18:19.903Z,16.03
2023-03-19T08:19:19.889Z,16.04
2023-03-19T08:20:19.878Z,15.76
2023-03-19T08:21:19.871Z,15.56
2023-03-19T08:22:19.877Z,15.30
2023-03-19T08:23:19.860Z,15.33
2023-03-19T08:24:19.834Z,15.12
2023-03-19T08:25:19.839Z,14.93
2023-03-19T08:26:19.814Z,14.74
2023-03-19T08:27:19.866Z,14.69
2023-03-19T08:28:19.795Z,14.49
2023-03-19T08:29:19.785Z,14.44
2023-03-19T08:30:19.779Z,14.24
2023-03-19T08:31:19.828Z,14.13
2023-03-19T08:32:19.747Z,13.91
2023-03-19T08:33:19.773Z,13.69
2023-03-19T08:34:19.728Z,13.61
2023-03-19T08:35:19.719Z,13.56
2023-03-19T08:36:19.721Z,13.54
2023-03-19T08:37:19.711Z,13.51
2023-03-19T08:38:19.683Z,13.44
2023-03-19T08:39:19.679Z,13.37
2023-03-19T08:40:19.660Z,13.17
2023-03-19T08:41:19.652Z,13.14
2023-03-19T08:42:19.650Z,13.12
2023-03-19T08:43:19.631Z,13.06
2023-03-19T08:44:19.617Z,13.06
2023-03-19T08:45:19.610Z,13.03
2023-03-19T08:46:19.644Z,12.93
2023-03-19T08:47:19.609Z,12.82
2023-03-19T08:48:19.576Z,12.63
2023-03-19T08:49:19.585Z,12.62
2023-03-19T08:50:19.551Z,12.57
2023-03-19T08:51:19.544Z,12.37
2023-03-19T08:52:19.569Z,12.38
2023-03-19T08:53:19.692Z,12.30
2023-03-19T08:54:22.169Z,12.16
2023-03-19T08:55:19.502Z,12.05
2023-03-19T08:56:19.485Z,11.77
2023-03-19T08:57:19.493Z,11.72
2023-03-19T08:58:19.468Z,11.46
2023-03-19T08:59:19.457Z,11.27
2023-03-19T09:00:19.494Z,11.11
2023-03-19T09:01:19.472Z,10.94
2023-03-19T09:02:19.455Z,10.94
2023-03-19T09:03:19.413Z,10.92
2023-03-19T09:04:19.420Z,10.84
2023-03-19T09:05:19.413Z,10.65
2023-03-19T09:06:19.378Z,10.39
2023-03-19T09:07:19.383Z,10.17
2023-03-19T09:08:19.358Z,10.07
2023-03-19T09:09:19.349Z,10.07
2023-03-19T09:10:19.356Z,10.15
2023-03-19T09:11:19.420Z,10.00
2023-03-19T09:12:19.340Z,10.03
2023-03-19T09:13:19.329Z,10.12
2023-03-19T09:14:19.293Z,10.14
2023-03-19T09:15:19.283Z,10.14
2023-03-19T09:16:19.334Z,10.28
2023-03-19T09:17:19.272Z,10.28
2023-03-19T09:18:19.248Z,10.30
2023-03-19T09:19:19.253Z,10.37
2023-03-19T09:20:19.227Z,10.33
2023-03-19T09:21:19.250Z,10.47
2023-03-19T09:22:19.226Z,10.46
2023-03-19T09:23:19.196Z,10.63
2023-03-19T09:24:19.184Z,10.59
2023-03-19T09:25:19.174Z,10.58
2023-03-19T09:26:19.181Z,10.62
2023-03-19T09:27:19.168Z,10.73
2023-03-19T09:28:19.150Z,10.62
2023-03-19T09:29:19.146Z,10.73
2023-03-19T09:30:19.162Z,10.73
2023-03-19T09:31:19.170Z,10.70
2023-03-19T09:32:19.184Z,10.60
2023-03-19T09:33:19.127Z,10.73
2023-03-19T09:34:19.108Z,10.68
2023-03-19T09:35:19.069Z,10.74
2023-03-19T09:36:19.126Z,10.76
2023-03-19T09:37:19.098Z,10.78
2023-03-19T09:38:19.056Z,10.88
2023-03-19T09:39:19.067Z,10.86
2023-03-19T09:40:19.011Z,10.91
2023-03-19T09:41:19.003Z,11.02
2023-03-19T09:42:18.998Z,11.03
2023-03-19T09:43:18.980Z,11.20
2023-03-19T09:44:18.969Z,11.11
2023-03-19T09:45:18.963Z,11.14
2023-03-19T09:46:21.960Z,11.25
2023-03-19T09:47:18.947Z,11.27
2023-03-19T09:48:18.925Z,11.19
2023-03-19T09:49:18.921Z,11.27
2023-03-19T09:50:18.906Z,11.25
2023-03-19T09:51:18.900Z,11.27
2023-03-19T09:52:18.903Z,11.20
2023-03-19T09:53:18.892Z,11.20
2023-03-19T09:54:18.860Z,11.29
2023-03-19T09:55:18.852Z,11.24
2023-03-19T09:56:18.840Z,11.34
2023-03-19T09:57:18.852Z,11.39
2023-03-19T09:58:18.824Z,11.27
2023-03-19T09:59:18.807Z,11.36
2023-03-19T10:00:18.796Z,11.29
2023-03-19T10:01:18.815Z,11.38
2023-03-19T10:02:18.786Z,11.43
2023-03-19T10:03:18.770Z,11.39
2023-03-19T10:04:18.803Z,11.53
2023-03-19T10:05:18.749Z,11.71
2023-03-19T10:06:18.753Z,11.80
2023-03-19T10:07:18.736Z,11.64
2023-03-19T10:08:18.722Z,11.74
2023-03-19T10:09:18.726Z,11.74
2023-03-19T10:10:18.698Z,11.77
2023-03-19T10:11:18.678Z,11.77
2023-03-19T10:12:18.723Z,11.72
2023-03-19T10:13:18.665Z,11.68
2023-03-19T10:14:18.644Z,11.53
2023-03-19T10:15:18.644Z,11.49
2023-03-19T10:16:18.673Z,11.54
2023-03-19T10:17:18.627Z,11.64
2023-03-19T10:18:18.604Z,11.65
2023-03-19T10:19:18.594Z,11.67
2023-03-19T10:20:18.587Z,11.70
2023-03-19T10:21:18.577Z,11.75
2023-03-19T10:22:18.816Z,11.83
2023-03-19T10:23:18.547Z,11.72
2023-03-19T10:24:18.536Z,11.71
2023-03-19T10:25:18.545Z,11.72
2023-03-19T10:26:18.640Z,11.72
2023-03-19T10:27:18.519Z,11.80
2023-03-19T10:28:18.580Z,11.77
2023-03-19T10:29:18.489Z,11.72
2023-03-19T10:30:18.469Z,11.74
2023-03-19T10:31:18.475Z,11.54
2023-03-19T10:32:18.470Z,11.64
2023-03-19T10:33:18.438Z,11.54
2023-03-19T10:34:18.425Z,11.56
2023-03-19T10:35:18.432Z,11.64
2023-03-19T10:36:18.465Z,11.70
2023-03-19T10:37:18.424Z,11.82
2023-03-19T10:38:18.385Z,12.02
2023-03-19T10:39:18.381Z,12.06
2023-03-19T10:40:18.362Z,12.13
2023-03-19T10:41:18.372Z,12.23
2023-03-19T10:42:18.354Z,12.19
2023-03-19T10:43:18.332Z,12.11
2023-03-19T10:44:18.325Z,11.99
2023-03-19T10:45:18.310Z,12.06
2023-03-19T10:46:18.372Z,12.05
2023-03-19T10:47:18.314Z,12.08
2023-03-19T10:48:18.303Z,12.11
2023-03-19T10:49:18.279Z,12.16
2023-03-19T10:50:18.387Z,12.33
2023-03-19T10:51:18.267Z,12.23
2023-03-19T10:52:18.244Z,12.29
2023-03-19T10:53:18.223Z,12.34
2023-03-19T10:54:18.211Z,12.31
2023-03-19T10:55:18.212Z,12.31
2023-03-19T10:56:18.190Z,12.23
2023-03-19T10:57:18.223Z,12.37
2023-03-19T10:58:18.174Z,12.41
2023-03-19T10:59:18.161Z,12.51
2023-03-19T11:00:18.258Z,12.49
2023-03-19T11:01:18.227Z,12.54
2023-03-19T11:02:18.142Z,12.70
2023-03-19T11:03:18.115Z,12.57
2023-03-19T11:04:18.195Z,12.69
2023-03-19T11:05:18.100Z,12.78
2023-03-19T11:06:18.084Z,12.71
2023-03-19T11:07:18.083Z,12.84
2023-03-19T11:08:34.631Z,12.96
2023-03-19T11:09:19.056Z,13.09
2023-03-19T11:10:18.105Z,13.20
2023-03-19T11:11:18.036Z,13.24
2023-03-19T11:12:18.028Z,13.41
2023-03-19T11:13:18.023Z,13.54
2023-03-19T11:14:17.990Z,13.61
2023-03-19T11:15:17.981Z,13.62
2023-03-19T11:16:18.023Z,13.62
2023-03-19T11:17:17.965Z,13.63
2023-03-19T11:18:17.966Z,13.62
2023-03-19T11:19:17.939Z,13.76
2023-03-19T11:20:17.929Z,13.67
2023-03-19T11:21:17.921Z,13.61
2023-03-19T11:22:20.397Z,13.62
2023-03-19T11:23:17.909Z,13.51
2023-03-19T11:24:17.884Z,13.65
2023-03-19T11:25:17.873Z,13.59
2023-03-19T11:26:17.865Z,13.61
2023-03-19T11:27:17.851Z,13.62
2023-03-19T11:28:21.037Z,13.76
2023-03-19T11:29:17.848Z,13.70
2023-03-19T11:30:17.940Z,13.80
2023-03-19T11:31:17.807Z,13.92
2023-03-19T11:32:21.921Z,13.98
2023-03-19T11:33:17.847Z,13.92
2023-03-19T11:34:17.773Z,14.10
2023-03-19T11:35:17.783Z,14.19
2023-03-19T11:36:17.800Z,14.19
2023-03-19T11:37:17.743Z,14.17
2023-03-19T11:38:17.746Z,14.24
2023-03-19T11:39:17.726Z,14.31
2023-03-19T11:40:17.731Z,14.44
2023-03-19T11:41:17.701Z,14.49
2023-03-19T11:42:17.688Z,14.46
2023-03-19T11:43:17.700Z,14.43
2023-03-19T11:44:17.674Z,14.52
2023-03-19T11:45:17.676Z,14.54
2023-03-19T11:46:17.694Z,14.53
2023-03-19T11:47:26.819Z,14.56
2023-03-19T11:48:18.638Z,14.50
2023-03-19T11:49:17.614Z,14.53
2023-03-19T11:50:17.600Z,14.53
2023-03-19T11:51:17.593Z,14.60
2023-03-19T11:52:17.578Z,14.64
2023-03-19T11:53:17.579Z,14.60
2023-03-19T11:54:17.556Z,14.68
2023-03-19T11:55:17.567Z,14.74
2023-03-19T11:56:17.544Z,14.81
2023-03-19T11:57:17.535Z,14.75
2023-03-19T11:58:17.532Z,14.83
2023-03-19T11:59:17.520Z,14.81
2023-03-19T12:00:17.501Z,14.93
2023-03-19T12:01:17.502Z,14.86
2023-03-19T12:02:17.512Z,14.86
2023-03-19T12:03:17.564Z,14.88
2023-03-19T12:04:17.450Z,14.84
2023-03-19T12:05:17.439Z,14.90
2023-03-19T12:06:17.427Z,14.86
2023-03-19T12:07:17.440Z,14.86
2023-03-19T12:08:17.419Z,14.90
2023-03-19T12:09:17.400Z,14.94
2023-03-19T12:10:17.391Z,14.93
2023-03-19T12:11:17.390Z,14.99
2023-03-19T12:12:17.362Z,14.98
2023-03-19T12:13:17.368Z,14.91
2023-03-19T12:14:17.342Z,15.02
2023-03-19T12:15:17.329Z,15.03
2023-03-19T12:16:17.413Z,14.98
2023-03-19T12:17:17.337Z,15.05
2023-03-19T12:18:17.323Z,15.09
2023-03-19T12:19:17.286Z,15.09
2023-03-19T12:20:17.274Z,15.11
2023-03-19T12:21:17.287Z,15.19
2023-03-19T12:22:17.253Z,15.08
2023-03-19T12:23:17.247Z,15.08
2023-03-19T12:24:17.236Z,15.06
2023-03-19T12:25:17.249Z,15.13
2023-03-19T12:26:17.225Z,15.05
2023-03-19T12:27:17.211Z,15.11
2023-03-19T12:28:17.189Z,15.11
2023-03-19T12:29:17.176Z,15.11
2023-03-19T12:30:17.162Z,15.28
2023-03-19T12:31:17.233Z,15.27
2023-03-19T12:32:17.145Z,15.28
2023-03-19T12:33:17.175Z,15.43
2023-03-19T12:34:17.124Z,15.51
2023-03-19T12:35:17.124Z,15.42
2023-03-19T12:36:17.156Z,15.52
2023-03-19T12:37:17.090Z,15.48
2023-03-19T12:38:17.089Z,15.59
2023-03-19T12:39:17.063Z,15.54
2023-03-19T12:40:17.189Z,15.60
2023-03-19T12:41:17.046Z,15.61
2023-03-19T12:42:17.034Z,15.70
2023-03-19T12:43:17.030Z,15.76
2023-03-19T12:44:17.009Z,15.78
2023-03-19T12:45:17.000Z,15.72
2023-03-19T12:46:17.064Z,15.81
2023-03-19T12:47:16.982Z,15.88
2023-03-19T12:48:16.996Z,15.89
2023-03-19T12:49:16.974Z,15.86
2023-03-19T12:50:16.946Z,15.82
2023-03-19T12:51:16.930Z,15.89
2023-03-19T12:52:16.924Z,15.96
2023-03-19T12:53:16.938Z,16.00
2023-03-19T12:54:16.914Z,15.88